Time;durP1;ratioP1;P1;durP2;ratioP2;P2;SDS_P1;SDS_P2;PMS_P1;PMS_P2;Temp;Humidity;BMP_temperature;BMP_pressure;BME280_temperature;BME280_humidity;BME280_pressure;Samples;Min_cycle;Max_cycle;Signal;HPM_P1;HPM_P2
2022/01/24 07:59:02;;;;;;;31.95;20.90;;;;;;;5.01;74.02;103316.41;5266667;28;20404;-73
2022/01/24 08:01:33;;;;;;;27.65;21.00;;;;;;;4.91;74.17;103315.84;5256955;28;20490;-73
2022/01/24 08:04:04;;;;;;;29.17;21.77;;;;;;;4.86;74.09;103323.81;5248885;28;20030;-75
2022/01/24 08:06:36;;;;;;;28.05;22.40;;;;;;;4.94;74.08;103327.34;5247211;28;20029;-73
2022/01/24 08:09:09;;;;;;;31.42;23.05;;;;;;;4.97;73.45;103332.44;5257296;28;20033;-74
2022/01/24 08:11:41;;;;;;;31.73;23.13;;;;;;;4.96;73.78;103338.13;5248005;28;20025;-74
2022/01/24 08:14:12;;;;;;;32.92;23.83;;;;;;;5.04;73.04;103331.66;5253803;28;20017;-74
2022/01/24 08:16:43;;;;;;;33.05;23.63;;;;;;;5.12;73.42;103332.44;5257621;28;20036;-74
2022/01/24 08:19:14;;;;;;;30.88;23.70;;;;;;;5.15;72.92;103336.69;5255174;28;20083;-74
2022/01/24 08:21:46;;;;;;;30.35;23.63;;;;;;;5.13;72.53;103339.63;5244419;28;20396;-74
2022/01/24 08:24:17;;;;;;;27.58;22.10;;;;;;;5.16;72.36;103336.50;5257371;28;20029;-74
2022/01/24 08:26:49;;;;;;;30.25;23.77;;;;;;;5.19;72.77;103336.13;5257753;28;20033;-75
2022/01/24 08:29:20;;;;;;;31.58;24.77;;;;;;;5.20;72.55;103335.06;5258182;28;20028;-75
2022/01/24 08:31:51;;;;;;;30.30;24.70;;;;;;;5.22;72.29;103341.25;5258559;28;20029;-75
2022/01/24 08:34:23;;;;;;;28.38;23.73;;;;;;;5.27;72.02;103339.81;5258228;28;20021;-74
2022/01/24 08:36:54;;;;;;;30.40;24.67;;;;;;;5.20;70.86;103345.22;5258664;28;20052;-75
2022/01/24 08:39:25;;;;;;;30.20;23.80;;;;;;;5.26;70.77;103332.59;5259097;28;20022;-74
2022/01/24 08:42:04;;;;;;;29.02;22.73;;;;;;;5.13;71.38;103339.63;5257923;28;20041;-76
2022/01/24 08:47:09;;;;;;;29.20;24.48;;;;;;;5.26;71.50;103338.94;5257331;28;20037;-74
2022/01/24 08:49:40;;;;;;;30.35;22.85;;;;;;;5.24;71.58;103346.56;5258076;28;20087;-74
2022/01/24 08:52:11;;;;;;;28.65;22.55;;;;;;;5.15;71.56;103332.03;5257698;28;20021;-74
2022/01/24 08:54:43;;;;;;;27.90;22.52;;;;;;;5.22;72.16;103343.16;5258557;28;20025;-74
2022/01/24 08:57:15;;;;;;;31.60;24.75;;;;;;;5.26;71.14;103346.34;5257746;28;20055;-74
2022/01/24 08:59:46;;;;;;;31.92;24.85;;;;;;;5.15;70.70;103354.06;5258095;28;20067;-72
2022/01/24 09:02:18;;;;;;;30.17;23.88;;;;;;;5.12;72.24;103343.44;5258114;28;20061;-74
2022/01/24 09:04:50;;;;;;;28.08;22.92;;;;;;;5.23;71.19;103347.59;5256912;28;20025;-74
2022/01/24 09:07:21;;;;;;;30.00;23.02;;;;;;;5.23;71.10;103333.84;5258397;28;20025;-74
2022/01/24 09:09:52;;;;;;;29.00;22.95;;;;;;;5.21;71.15;103339.50;5246776;28;20112;-74
2022/01/24 09:12:23;;;;;;;28.75;22.00;;;;;;;5.25;71.20;103348.25;5242427;28;20029;-74
2022/01/24 09:14:58;;;;;;;26.60;21.40;;;;;;;5.27;70.75;103345.31;5242486;28;20472;-75
2022/01/24 09:17:30;;;;;;;31.00;22.65;;;;;;;5.23;71.24;103350.34;5243822;28;20033;-71
2022/01/24 09:20:01;;;;;;;27.27;21.20;;;;;;;5.50;74.79;103351.50;5243047;28;20037;-71
2022/01/24 09:22:34;;;;;;;45.50;22.95;;;;;;;5.85;82.17;103354.41;5243221;28;20067;-71
2022/01/24 09:25:09;;;;;;;34.70;22.67;;;;;;;5.77;77.64;103349.88;5243671;28;20025;-69
2022/01/24 09:27:41;;;;;;;34.53;20.77;;;;;;;5.82;76.25;103352.91;5242224;28;20104;-70
2022/01/24 09:30:16;;;;;;;33.75;22.23;;;;;;;5.98;76.65;103354.59;5243658;28;20484;-69
2022/01/24 09:32:47;;;;;;;28.45;20.90;;;;;;;5.83;73.92;103346.34;5242388;28;20033;-69
2022/01/24 09:35:20;;;;;;;27.17;20.00;;;;;;;5.82;73.20;103339.13;5243061;28;20030;-71
2022/01/24 09:37:51;;;;;;;25.30;19.02;;;;;;;6.14;77.37;103344.34;5243152;28;20037;-68
2022/01/24 09:40:23;;;;;;;24.50;20.33;;;;;;;5.83;72.61;103346.34;5242745;28;20029;-68
2022/01/24 09:42:55;;;;;;;26.98;21.45;;;;;;;5.85;72.39;103343.38;5243559;28;20025;-69
2022/01/24 09:45:28;;;;;;;26.52;19.92;;;;;;;5.92;72.99;103349.81;5243298;28;20026;-70
2022/01/24 09:48:01;;;;;;;29.83;21.30;;;;;;;5.92;72.75;103347.06;5243136;28;20030;-70
2022/01/24 09:50:33;;;;;;;30.42;21.25;;;;;;;5.89;72.57;103339.19;5243638;28;20030;-70
2022/01/24 09:53:04;;;;;;;27.92;21.38;;;;;;;5.85;72.12;103349.78;5242983;28;20033;-69
2022/01/24 09:55:35;;;;;;;25.33;19.90;;;;;;;5.66;70.27;103345.75;5241823;28;20025;-70
2022/01/24 09:58:07;;;;;;;28.73;20.60;;;;;;;5.78;70.58;103342.50;5242923;28;20084;-70
2022/01/24 10:00:39;;;;;;;27.13;20.15;;;;;;;5.53;68.93;103345.63;5242773;28;20030;-73
2022/01/24 10:03:14;;;;;;;23.50;18.75;;;;;;;5.61;69.45;103339.13;5243275;28;20069;-71
2022/01/24 10:05:52;;;;;;;26.85;18.17;;;;;;;5.56;69.31;103339.72;5243108;28;20387;-69
2022/01/24 10:08:25;;;;;;;23.90;18.75;;;;;;;5.53;69.52;103342.88;5242680;28;20030;-68
2022/01/24 10:11:01;;;;;;;25.50;20.05;;;;;;;5.55;69.55;103342.69;5242627;28;20021;-68
2022/01/24 10:16:35;;;;;;;25.02;20.40;;;;;;;5.49;70.32;103340.69;5242576;28;20041;-71
2022/01/24 10:19:21;;;;;;;24.83;19.17;;;;;;;5.57;69.82;103341.44;5243166;28;20032;-73
2022/01/24 10:22:02;;;;;;;28.65;20.35;;;;;;;5.59;69.88;103333.81;5241090;28;20030;-72
2022/01/24 10:24:37;;;;;;;24.63;18.55;;;;;;;5.62;68.85;103344.44;5242743;28;20508;-72
2022/01/24 10:27:24;;;;;;;25.70;17.65;;;;;;;5.54;68.65;103346.47;5242808;28;20043;-69
2022/01/24 10:30:04;;;;;;;25.20;18.42;;;;;;;5.35;69.12;103334.19;5241133;28;20025;-72
2022/01/24 10:32:49;;;;;;;24.13;16.55;;;;;;;5.33;70.26;103341.78;5243114;28;20455;-72
2022/01/24 10:35:32;;;;;;;22.92;18.35;;;;;;;5.40;69.27;103342.72;5242361;28;20018;-72
2022/01/24 10:38:34;;;;;;;22.60;17.67;;;;;;;5.40;70.08;103339.97;5241059;28;20040;-72
2022/01/24 10:43:44;;;;;;;24.55;19.10;;;;;;;5.12;69.65;103331.59;5229099;28;20508;-73
2022/01/24 10:46:25;;;;;;;27.15;19.58;;;;;;;5.12;70.03;103331.59;5240943;28;20025;-73
2022/01/24 10:49:03;;;;;;;24.23;18.65;;;;;;;5.09;69.79;103330.06;5242438;28;20125;-73
2022/01/24 10:51:44;;;;;;;26.52;19.13;;;;;;;5.08;69.74;103320.09;5240108;28;20028;-73
2022/01/24 10:54:26;;;;;;;23.38;17.70;;;;;;;5.29;69.78;103321.19;5222670;28;20080;-73
2022/01/24 10:56:57;;;;;;;22.92;16.60;;;;;;;5.28;69.11;103322.25;5233848;28;20050;-73
2022/01/24 10:59:29;;;;;;;20.85;17.83;;;;;;;5.28;68.88;103320.34;5226703;28;20083;-73
2022/01/24 11:02:02;;;;;;;24.95;18.05;;;;;;;5.48;69.13;103325.22;5231557;28;20390;-73
2022/01/24 11:04:34;;;;;;;24.70;18.15;;;;;;;5.43;69.18;103323.06;5237184;28;20021;-73
2022/01/24 11:07:06;;;;;;;24.70;17.95;;;;;;;5.38;68.84;103320.03;5239062;28;20546;-75
2022/01/24 11:09:42;;;;;;;24.95;18.67;;;;;;;5.47;68.73;103316.13;5223836;28;20475;-71
2022/01/24 11:12:14;;;;;;;22.83;18.65;;;;;;;5.57;68.69;103313.03;5241034;28;20171;-72
2022/01/24 11:14:45;;;;;;;26.02;18.70;;;;;;;5.35;68.47;103320.44;5241639;28;20026;-72
2022/01/24 11:17:24;;;;;;;24.92;20.55;;;;;;;5.20;69.12;103312.22;5242193;28;20029;-72
2022/01/24 11:20:01;;;;;;;23.80;18.20;;;;;;;5.05;68.89;103314.16;5236625;28;20033;-73
2022/01/24 11:22:35;;;;;;;23.95;18.77;;;;;;;5.05;69.66;103319.66;5241699;28;20017;-73
2022/01/24 11:25:08;;;;;;;30.73;24.70;;;;;;;5.05;69.74;103312.25;5240522;28;20040;-73
2022/01/24 11:27:43;;;;;;;31.38;24.08;;;;;;;5.02;70.07;103309.88;5240134;28;20033;-73
2022/01/24 11:30:19;;;;;;;38.58;28.95;;;;;;;5.03;70.02;103317.06;5234259;28;20045;-72
2022/01/24 11:33:04;;;;;;;23.33;19.33;;;;;;;5.16;70.08;103302.63;5220250;28;20026;-73
2022/01/24 11:35:41;;;;;;;25.23;18.27;;;;;;;5.11;69.96;103303.19;5220830;28;20033;-73
2022/01/24 11:38:35;;;;;;;26.00;19.95;;;;;;;5.20;69.90;103303.97;5235249;28;20037;-72
2022/01/24 11:41:33;;;;;;;23.20;18.83;;;;;;;5.12;69.06;103301.34;5240506;28;20033;-73
2022/01/24 11:44:10;;;;;;;23.65;19.33;;;;;;;5.31;69.68;103313.59;5241601;28;20034;-74
2022/01/24 11:46:52;;;;;;;26.98;21.50;;;;;;;5.20;69.79;103307.56;5240535;28;20021;-73
2022/01/24 11:49:24;;;;;;;25.45;20.58;;;;;;;5.16;69.21;103306.22;5238764;28;20112;-72
2022/01/24 11:52:11;;;;;;;25.40;19.38;;;;;;;5.19;69.76;103303.13;5222397;28;20437;-73
2022/01/24 11:54:48;;;;;;;26.33;20.95;;;;;;;5.23;69.87;103301.66;5229756;28;20025;-73
2022/01/24 11:57:37;;;;;;;24.85;19.58;;;;;;;5.31;69.71;103302.59;5241379;28;20073;-73
2022/01/24 12:00:11;;;;;;;26.10;20.65;;;;;;;5.18;69.08;103298.63;5240190;28;20032;-72
2022/01/24 12:02:45;;;;;;;24.90;18.77;;;;;;;5.28;71.92;103292.81;5239960;28;20030;-67
2022/01/24 12:05:37;;;;;;;26.95;20.73;;;;;;;5.28;69.30;103297.50;5239946;28;20049;-70
2022/01/24 12:08:12;;;;;;;25.45;20.23;;;;;;;5.19;69.63;103282.97;5240395;28;20337;-70
2022/01/24 12:10:47;;;;;;;23.42;19.52;;;;;;;5.27;69.61;103279.28;5240969;28;20064;-71
2022/01/24 12:13:25;;;;;;;24.65;19.38;;;;;;;5.33;69.10;103281.25;5240767;28;20357;-72
2022/01/24 12:16:00;;;;;;;24.13;18.27;;;;;;;5.53;68.56;103275.94;5239813;28;20029;-71
2022/01/24 12:18:33;;;;;;;25.95;19.63;;;;;;;5.49;68.97;103282.88;5240824;28;20031;-70
2022/01/24 12:21:10;;;;;;;26.20;20.30;;;;;;;5.49;68.85;103282.88;5240506;28;20041;-70
2022/01/24 12:23:47;;;;;;;25.40;20.10;;;;;;;5.50;68.85;103276.34;5240127;28;20454;-72
2022/01/24 12:26:18;;;;;;;28.73;20.73;;;;;;;5.54;68.57;103278.50;5240563;28;20396;-71
2022/01/24 12:28:53;;;;;;;25.05;19.80;;;;;;;5.52;69.04;103283.38;5240362;28;20034;-71
2022/01/24 12:31:35;;;;;;;24.63;19.52;;;;;;;5.56;69.16;103273.66;5240863;28;20025;-68
2022/01/24 12:34:12;;;;;;;24.80;19.33;;;;;;;5.47;68.47;103268.47;5240223;28;20033;-69
2022/01/24 12:36:53;;;;;;;27.23;20.20;;;;;;;5.34;68.76;103275.56;5218959;28;20430;-71
2022/01/24 12:39:38;;;;;;;25.20;18.83;;;;;;;5.42;68.88;103272.69;5220308;28;20492;-71
2022/01/24 12:42:17;;;;;;;41.85;31.98;;;;;;;5.45;68.99;103277.78;5225059;28;20045;-69
2022/01/24 12:47:26;;;;;;;29.55;19.50;;;;;;;5.65;68.65;103266.97;5244318;28;20480;-68
2022/01/24 12:49:58;;;;;;;26.30;19.47;;;;;;;5.71;68.34;103264.47;5243381;28;20540;-72
2022/01/24 12:52:29;;;;;;;23.70;18.73;;;;;;;5.60;67.55;103255.69;5244492;28;20104;-72
2022/01/24 12:55:03;;;;;;;25.42;19.75;;;;;;;5.64;68.04;103256.97;5244387;28;20097;-72
2022/01/24 12:57:40;;;;;;;25.48;19.42;;;;;;;5.63;68.17;103260.81;5243479;28;20072;-71
2022/01/24 13:00:16;;;;;;;27.45;20.75;;;;;;;5.45;68.33;103254.91;5244152;28;20025;-70
2022/01/24 13:02:48;;;;;;;26.55;20.75;;;;;;;5.38;68.62;103254.84;5243958;28;20048;-72
2022/01/24 13:05:23;;;;;;;26.45;21.58;;;;;;;5.44;68.80;103247.69;5242635;28;20033;-71
2022/01/24 13:07:56;;;;;;;;;;;;;;;5.66;69.42;103240.28;5244751;28;20075;-70
2022/01/24 13:10:30;;;;;;;27.50;19.30;;;;;;;5.60;68.12;103230.91;5243866;28;19928;-70
2022/01/24 13:13:10;;;;;;;26.98;20.45;;;;;;;5.60;68.76;103236.44;5243363;28;20377;-70
2022/01/24 13:21:26;;;;;;;24.73;20.45;;;;;;;5.20;68.72;103226.94;5236478;28;20144;-73
2022/01/24 13:24:00;;;;;;;64.90;48.78;;;;;;;5.35;69.30;103215.88;5249640;28;20037;-69
2022/01/24 13:26:32;;;;;;;27.55;20.65;;;;;;;5.27;69.19;103225.09;5250294;28;20060;-69
2022/01/24 13:29:04;;;;;;;26.23;20.38;;;;;;;5.33;69.13;103234.47;5245258;28;20120;-71
2022/01/24 13:31:36;;;;;;;25.80;19.45;;;;;;;5.28;69.00;103240.53;5243078;28;20029;-70
2022/01/24 13:34:10;;;;;;;26.73;20.23;;;;;;;5.34;69.29;103231.53;5243523;28;20022;-71
2022/01/24 13:36:42;;;;;;;25.73;19.92;;;;;;;5.28;69.01;103231.44;5243464;28;20060;-68
2022/01/24 13:39:14;;;;;;;25.05;18.83;;;;;;;5.38;68.98;103231.97;5241737;28;20028;-68
2022/01/24 13:41:45;;;;;;;28.38;20.63;;;;;;;5.36;68.77;103231.31;5243825;28;20440;-68
2022/01/24 13:44:18;;;;;;;24.70;18.30;;;;;;;5.52;68.71;103233.81;5243399;28;20200;-71
2022/01/24 13:46:49;;;;;;;25.52;20.33;;;;;;;5.57;68.49;103236.81;5242734;28;20075;-71
2022/01/24 13:49:21;;;;;;;175.52;121.22;;;;;;;5.69;68.19;103236.28;5242743;28;20029;-71
2022/01/24 13:51:54;;;;;;;26.35;22.05;;;;;;;5.48;68.82;103238.00;5243356;28;20029;-69
2022/01/24 13:54:28;;;;;;;30.33;22.45;;;;;;;5.66;68.82;103221.84;5240227;28;20030;-69
2022/01/24 13:57:04;;;;;;;26.73;20.95;;;;;;;5.96;68.24;103231.88;5243052;28;20050;-68
2022/01/24 13:59:37;;;;;;;28.15;21.60;;;;;;;5.92;67.88;103227.78;5242758;28;20083;-69
2022/01/24 14:02:14;;;;;;;26.25;20.30;;;;;;;6.00;67.65;103231.25;5241611;28;20030;-69
2022/01/24 14:04:52;;;;;;;29.85;22.52;;;;;;;5.94;67.44;103225.72;5242917;28;20087;-71
2022/01/24 14:07:23;;;;;;;54.45;43.22;;;;;;;5.83;68.68;103221.59;5242524;28;20025;-71
2022/01/24 14:09:57;;;;;;;76.57;62.37;;;;;;;5.87;68.23;103217.34;5242318;28;20040;-71
2022/01/24 14:12:42;;;;;;;31.17;22.90;;;;;;;6.01;68.25;103218.34;5243601;28;20329;-71
2022/01/24 14:15:23;;;;;;;31.27;23.70;;;;;;;5.96;68.32;103224.47;5249804;28;20025;-74
2022/01/24 14:21:11;;;;;;;32.90;24.17;;;;;;;5.88;68.25;103222.69;5241585;28;20072;-70
2022/01/24 14:23:51;;;;;;;20.00;17.13;;;;;;;6.19;72.42;103212.31;5241644;28;20029;-67
2022/01/24 14:26:24;;;;;;;30.85;22.40;;;;;;;6.05;70.30;103214.13;5242324;28;20029;-68
2022/01/24 14:29:12;;;;;;;33.42;27.60;;;;;;;5.97;68.81;103214.28;5240936;28;20073;-68
2022/01/24 14:31:47;;;;;;;28.80;22.42;;;;;;;5.74;69.50;103209.00;5221788;28;20080;-73
2022/01/24 14:34:18;;;;;;;28.67;22.92;;;;;;;5.57;68.85;103211.19;5222100;28;20064;-69
2022/01/24 14:36:56;;;;;;;27.75;22.95;;;;;;;5.88;69.57;103208.06;5221469;28;20064;-72
2022/01/24 14:39:28;;;;;;;30.05;22.23;;;;;;;5.64;69.20;103215.69;5240789;28;20034;-71
2022/01/24 14:42:25;;;;;;;28.98;22.35;;;;;;;5.65;68.80;103211.91;5241059;28;20392;-71
2022/01/24 14:44:57;;;;;;;33.13;23.85;;;;;;;5.79;69.21;103212.00;5240784;28;20057;-70
2022/01/24 14:47:30;;;;;;;28.85;22.20;;;;;;;5.70;68.43;103213.19;5241915;28;20060;-71
2022/01/24 14:50:01;;;;;;;31.45;22.23;;;;;;;5.88;68.36;103217.16;5237737;28;20528;-71
2022/01/24 14:52:35;;;;;;;50.67;41.55;;;;;;;5.81;68.67;103215.41;5242124;28;20109;-71
2022/01/24 14:55:06;;;;;;;41.55;30.90;;;;;;;5.81;68.64;103220.91;5241372;28;20088;-73
2022/01/24 14:57:38;;;;;;;50.28;40.95;;;;;;;6.01;68.62;103219.19;5240674;28;20049;-73
2022/01/24 15:00:09;;;;;;;33.75;24.05;;;;;;;5.95;68.47;103210.88;5241105;28;20487;-72
2022/01/24 15:02:41;;;;;;;37.15;28.58;;;;;;;5.92;68.26;103209.34;5241396;28;20120;-72
2022/01/24 15:05:12;;;;;;;31.98;24.52;;;;;;;5.97;68.66;103215.13;5241359;28;20017;-71
2022/01/24 15:07:44;;;;;;;31.35;24.58;;;;;;;6.07;68.59;103204.59;5241798;28;20116;-71
2022/01/24 15:10:16;;;;;;;32.20;24.80;;;;;;;5.92;68.67;103206.59;5241268;28;20025;-73
2022/01/24 15:12:52;;;;;;;32.67;23.80;;;;;;;5.99;68.82;103196.50;5243247;28;20033;-73
2022/01/24 15:15:24;;;;;;;34.30;26.33;;;;;;;5.99;68.54;103195.66;5244006;28;20022;-74
2022/01/24 15:26:11;;;;;;;36.17;27.02;;;;;;;5.98;70.12;103200.31;5222279;28;20038;-73
2022/01/24 15:28:45;;;;;;;32.13;23.52;;;;;;;6.00;69.63;103202.84;5220387;28;20366;-73
2022/01/24 15:31:16;;;;;;;37.08;25.23;;;;;;;6.03;69.46;103206.09;5220676;28;20061;-72
2022/01/24 15:33:47;;;;;;;31.63;24.55;;;;;;;5.95;69.38;103211.72;5240767;28;20128;-73
2022/01/24 15:36:19;;;;;;;35.97;25.63;;;;;;;5.94;69.92;103212.78;5241166;28;20419;-73
2022/01/24 15:38:51;;;;;;;36.58;26.10;;;;;;;5.95;69.34;103208.13;5240363;28;20490;-73
2022/01/24 15:41:23;;;;;;;33.33;25.67;;;;;;;6.00;69.52;103198.19;5240991;28;20025;-74
2022/01/24 15:44:07;;;;;;;35.60;26.33;;;;;;;5.89;69.30;103205.09;5240871;28;20032;-74
2022/01/24 15:46:58;;;;;;;32.58;25.17;;;;;;;5.83;69.93;103207.81;5240140;28;20443;-73
2022/01/24 15:49:33;;;;;;;35.17;28.30;;;;;;;5.88;69.90;103208.06;5240871;28;20033;-73
2022/01/24 15:52:05;;;;;;;42.17;33.75;;;;;;;5.93;70.02;103204.69;5240047;28;20514;-72
2022/01/24 15:54:42;;;;;;;35.08;28.73;;;;;;;5.91;70.38;103204.06;5239135;28;20021;-72
2022/01/24 16:00:10;;;;;;;39.05;30.05;;;;;;;5.80;70.69;103203.56;5240306;28;20500;-70
2022/01/24 16:02:44;;;;;;;38.38;29.08;;;;;;;5.84;70.72;103198.47;5241052;28;20029;-70
2022/01/24 16:05:18;;;;;;;33.30;26.90;;;;;;;5.74;70.98;103197.97;5240505;28;20100;-74
2022/01/24 16:07:52;;;;;;;36.25;28.10;;;;;;;5.68;71.48;103196.88;5240278;28;20143;-71
2022/01/24 16:10:31;;;;;;;38.10;29.55;;;;;;;5.69;71.42;103194.97;5240525;28;20075;-69
2022/01/24 16:13:03;;;;;;;36.60;26.63;;;;;;;5.59;71.40;103195.31;5240585;28;20507;-70
2022/01/24 16:15:35;;;;;;;32.60;27.75;;;;;;;5.56;71.24;103191.06;5239346;28;20033;-77
2022/01/24 16:18:12;;;;;;;33.47;27.00;;;;;;;5.53;71.51;103202.47;5224766;28;20022;-71
2022/01/24 16:23:46;;;;;;;36.28;28.48;;;;;;;5.44;72.02;103196.28;5245032;28;20542;-72
2022/01/24 16:26:17;;;;;;;44.25;33.58;;;;;;;5.48;71.98;103202.22;5244232;28;20029;-71
2022/01/24 16:28:49;;;;;;;41.15;32.63;;;;;;;5.34;72.11;103208.63;5243057;28;20461;-71
2022/01/24 16:31:20;;;;;;;42.00;32.15;;;;;;;5.39;72.26;103209.78;5244617;28;20117;-71
2022/01/24 16:33:52;;;;;;;40.50;30.30;;;;;;;5.35;72.18;103216.72;5244557;28;20025;-72
2022/01/24 16:36:23;;;;;;;37.35;28.63;;;;;;;5.45;72.20;103222.72;5242716;28;20468;-71
2022/01/24 16:38:54;;;;;;;43.47;29.85;;;;;;;5.36;72.81;103218.41;5227733;28;20497;-71
2022/01/24 16:41:36;;;;;;;39.83;30.85;;;;;;;5.35;72.37;103226.88;5243449;28;20064;-70
2022/01/24 16:49:32;;;;;;;37.72;28.90;;;;;;;5.29;72.70;103224.88;5243813;28;20049;-71
2022/01/24 16:52:06;;;;;;;38.60;31.13;;;;;;;5.16;73.13;103234.69;5243248;28;20056;-71
2022/01/24 16:54:43;;;;;;;42.55;29.77;;;;;;;5.25;73.13;103237.34;5243635;28;20037;-69
2022/01/24 16:57:17;;;;;;;38.53;31.58;;;;;;;5.13;73.00;103234.25;5242836;28;20029;-69
2022/01/24 16:59:49;;;;;;;40.63;30.80;;;;;;;5.17;72.92;103233.66;5244524;28;20079;-69
2022/01/24 17:02:20;;;;;;;37.78;31.52;;;;;;;5.06;73.08;103236.91;5244601;28;20025;-72
2022/01/24 17:04:55;;;;;;;41.28;29.92;;;;;;;5.09;73.08;103231.06;5243630;28;20384;-74
2022/01/24 17:07:26;;;;;;;39.57;29.63;;;;;;;5.13;72.82;103229.59;5244319;28;20030;-72
2022/01/24 17:09:57;;;;;;;38.97;30.30;;;;;;;4.96;73.36;103237.25;5243571;28;20315;-72
2022/01/24 17:12:30;;;;;;;35.80;28.60;;;;;;;5.00;73.35;103244.06;5244434;28;20043;-73
2022/01/24 17:15:05;;;;;;;33.65;27.80;;;;;;;5.33;78.43;103245.47;5244236;28;20076;-72
2022/01/24 17:17:36;;;;;;;42.83;35.00;;;;;;;5.01;74.00;103247.66;5242140;28;20472;-74
2022/01/24 17:20:08;;;;;;;40.78;34.97;;;;;;;5.04;73.87;103254.66;5243960;28;20036;-72
2022/01/24 17:22:40;;;;;;;46.72;38.67;;;;;;;4.94;73.83;103260.50;5238943;28;20029;-75
2022/01/24 17:25:11;;;;;;;49.80;39.97;;;;;;;4.91;74.00;103258.09;5242484;28;20034;-74
2022/01/24 17:27:42;;;;;;;48.65;38.25;;;;;;;4.90;73.85;103256.41;5244017;28;20022;-75
2022/01/24 17:30:14;;;;;;;54.05;44.22;;;;;;;4.80;73.77;103254.81;5243116;28;20029;-75
